sensor_id;sensor_type;location;lat;lon;timestamp;pressure;altitude;pressure_sealevel;temperature;humidity
56668;BME280;42542;48.360;10.958;2023-02-11T00:04:22;98045.28;;;-3.70;89.23
56668;BME280;42542;48.360;10.958;2023-02-11T00:07:24;98050.53;;;-3.70;89.56
56668;BME280;42542;48.360;10.958;2023-02-11T00:10:26;98049.66;;;-3.71;89.91
56668;BME280;42542;48.360;10.958;2023-02-11T00:13:28;98043.59;;;-3.73;89.74
56668;BME280;42542;48.360;10.958;2023-02-11T00:16:30;98031.47;;;-3.75;90.13
56668;BME280;42542;48.360;10.958;2023-02-11T00:19:32;98048.00;;;-3.75;90.10
56668;BME280;42542;48.360;10.958;2023-02-11T00:22:35;98042.81;;;-3.76;90.18
56668;BME280;42542;48.360;10.958;2023-02-11T00:25:41;98028.94;;;-3.80;90.36
56668;BME280;42542;48.360;10.958;2023-02-11T00:28:44;98039.34;;;-3.77;90.36
56668;BME280;42542;48.360;10.958;2023-02-11T00:31:46;98038.47;;;-3.77;90.27
56668;BME280;42542;48.360;10.958;2023-02-11T00:34:51;98043.72;;;-3.79;90.27
56668;BME280;42542;48.360;10.958;2023-02-11T00:37:54;98037.63;;;-3.79;90.36
56668;BME280;42542;48.360;10.958;2023-02-11T00:40:57;98022.84;;;-3.80;90.55
56668;BME280;42542;48.360;10.958;2023-02-11T00:44:00;98022.91;;;-3.82;90.49
56668;BME280;42542;48.360;10.958;2023-02-11T00:47:02;98033.34;;;-3.82;90.26
56668;BME280;42542;48.360;10.958;2023-02-11T00:50:05;98029.91;;;-3.85;90.63
56668;BME280;42542;48.360;10.958;2023-02-11T00:53:07;98037.78;;;-3.87;90.79
56668;BME280;42542;48.360;10.958;2023-02-11T00:56:09;98038.63;;;-3.85;90.69
56668;BME280;42542;48.360;10.958;2023-02-11T00:59:11;98040.38;;;-3.85;90.83
56668;BME280;42542;48.360;10.958;2023-02-11T01:02:13;98043.00;;;-3.87;90.58
56668;BME280;42542;48.360;10.958;2023-02-11T01:05:17;98042.19;;;-3.89;90.63
56668;BME280;42542;48.360;10.958;2023-02-11T01:08:21;98049.16;;;-3.89;90.74
56668;BME280;42542;48.360;10.958;2023-02-11T01:11:24;98044.00;;;-3.94;90.75
56668;BME280;42542;48.360;10.958;2023-02-11T01:14:26;98044.91;;;-3.95;90.49
56668;BME280;42542;48.360;10.958;2023-02-11T01:17:28;98031.91;;;-3.97;90.40
56668;BME280;42542;48.360;10.958;2023-02-11T01:20:30;98041.41;;;-3.96;90.40
56668;BME280;42542;48.360;10.958;2023-02-11T01:23:33;98035.38;;;-3.98;90.27
56668;BME280;42542;48.360;10.958;2023-02-11T01:26:34;98027.63;;;-4.02;90.27
56668;BME280;42542;48.360;10.958;2023-02-11T01:29:36;98023.38;;;-4.06;90.01
56668;BME280;42542;48.360;10.958;2023-02-11T01:32:37;98038.16;;;-4.05;90.18
56668;BME280;42542;48.360;10.958;2023-02-11T01:35:40;98035.56;;;-4.08;90.12
56668;BME280;42542;48.360;10.958;2023-02-11T01:38:42;98033.94;;;-4.14;90.03
56668;BME280;42542;48.360;10.958;2023-02-11T01:41:46;98043.53;;;-4.14;90.09
56668;BME280;42542;48.360;10.958;2023-02-11T01:44:53;98044.41;;;-4.15;89.91
56668;BME280;42542;48.360;10.958;2023-02-11T01:47:54;98041.00;;;-4.19;89.77
56668;BME280;42542;48.360;10.958;2023-02-11T01:51:04;98027.16;;;-4.24;89.86
56668;BME280;42542;48.360;10.958;2023-02-11T01:54:13;98024.59;;;-4.25;89.84
56668;BME280;42542;48.360;10.958;2023-02-11T01:57:37;98023.75;;;-4.27;89.78
56668;BME280;42542;48.360;10.958;2023-02-11T02:00:40;98022.06;;;-4.30;89.94
56668;BME280;42542;48.360;10.958;2023-02-11T02:03:44;98022.06;;;-4.32;89.71
56668;BME280;42542;48.360;10.958;2023-02-11T02:06:55;98010.84;;;-4.35;89.99
56668;BME280;42542;48.360;10.958;2023-02-11T02:10:04;98004.75;;;-4.36;90.10
56668;BME280;42542;48.360;10.958;2023-02-11T02:13:07;97996.16;;;-4.41;89.85
56668;BME280;42542;48.360;10.958;2023-02-11T02:16:14;98010.97;;;-4.41;90.31
56668;BME280;42542;48.360;10.958;2023-02-11T02:29:06;97971.00;;;-4.45;90.55
56668;BME280;42542;48.360;10.958;2023-02-11T02:32:28;97948.38;;;-4.44;90.75
56668;BME280;42542;48.360;10.958;2023-02-11T02:36:01;97942.28;;;-4.45;91.03
56668;BME280;42542;48.360;10.958;2023-02-11T02:39:10;97944.91;;;-4.45;90.90
56668;BME280;42542;48.360;10.958;2023-02-11T02:42:15;97943.16;;;-4.46;91.21
56668;BME280;42542;48.360;10.958;2023-02-11T02:45:19;97920.53;;;-4.45;91.27
56668;BME280;42542;48.360;10.958;2023-02-11T02:55:05;97934.44;;;-4.43;91.32
56668;BME280;42542;48.360;10.958;2023-02-11T03:04:51;97931.84;;;-4.45;91.37
56668;BME280;42542;48.360;10.958;2023-02-11T03:08:01;97943.22;;;-4.47;91.01
56668;BME280;42542;48.360;10.958;2023-02-11T03:11:09;97943.22;;;-4.47;91.17
56668;BME280;42542;48.360;10.958;2023-02-11T03:14:14;97945.84;;;-4.49;91.11
56668;BME280;42542;48.360;10.958;2023-02-11T03:17:18;97944.13;;;-4.50;91.13
56668;BME280;42542;48.360;10.958;2023-02-11T03:20:21;97950.19;;;-4.48;91.09
56668;BME280;42542;48.360;10.958;2023-02-11T03:23:49;97949.34;;;-4.50;91.51
56668;BME280;42542;48.360;10.958;2023-02-11T03:26:55;97945.00;;;-4.51;91.52
56668;BME280;42542;48.360;10.958;2023-02-11T03:30:27;97945.00;;;-4.49;91.44
56668;BME280;42542;48.360;10.958;2023-02-11T03:37:06;97933.66;;;-4.48;91.56
56668;BME280;42542;48.360;10.958;2023-02-11T03:40:14;97910.19;;;-4.48;91.78
56668;BME280;42542;48.360;10.958;2023-02-11T03:43:19;97918.06;;;-4.51;91.65
56668;BME280;42542;48.360;10.958;2023-02-11T03:46:29;97908.44;;;-4.48;92.16
56668;BME280;42542;48.360;10.958;2023-02-11T03:49:32;97919.66;;;-4.44;92.15
56668;BME280;42542;48.360;10.958;2023-02-11T03:52:37;97924.81;;;-4.40;92.46
56668;BME280;42542;48.360;10.958;2023-02-11T03:55:39;97935.06;;;-4.32;93.02
56668;BME280;42542;48.360;10.958;2023-02-11T03:58:43;97935.00;;;-4.27;92.75
56668;BME280;42542;48.360;10.958;2023-02-11T04:01:46;97935.88;;;-4.28;93.02
56668;BME280;42542;48.360;10.958;2023-02-11T04:04:48;97940.06;;;-4.20;92.78
56668;BME280;42542;48.360;10.958;2023-02-11T04:07:50;97942.59;;;-4.17;92.84
56668;BME280;42542;48.360;10.958;2023-02-11T04:10:52;97955.56;;;-4.11;92.88
56668;BME280;42542;48.360;10.958;2023-02-11T04:13:54;97956.34;;;-4.07;92.74
56668;BME280;42542;48.360;10.958;2023-02-11T04:16:55;97967.63;;;-4.05;92.51
56668;BME280;42542;48.360;10.958;2023-02-11T04:19:58;97969.38;;;-4.04;92.26
56668;BME280;42542;48.360;10.958;2023-02-11T04:22:59;97973.66;;;-4.03;91.90
56668;BME280;42542;48.360;10.958;2023-02-11T04:26:02;97978.09;;;-4.07;92.05
56668;BME280;42542;48.360;10.958;2023-02-11T04:29:03;97985.88;;;-4.04;91.60
56668;BME280;42542;48.360;10.958;2023-02-11T04:32:08;97997.16;;;-4.03;91.92
56668;BME280;42542;48.360;10.958;2023-02-11T04:35:09;97987.59;;;-4.03;91.68
56668;BME280;42542;48.360;10.958;2023-02-11T04:38:11;97985.84;;;-4.02;91.74
56668;BME280;42542;48.360;10.958;2023-02-11T04:41:13;97978.06;;;-4.04;91.51
56668;BME280;42542;48.360;10.958;2023-02-11T04:44:15;97983.19;;;-4.01;91.74
56668;BME280;42542;48.360;10.958;2023-02-11T04:47:17;97988.41;;;-3.99;91.72
56668;BME280;42542;48.360;10.958;2023-02-11T04:50:20;97977.97;;;-4.01;91.46
56668;BME280;42542;48.360;10.958;2023-02-11T04:53:22;97977.03;;;-3.97;91.55
56668;BME280;42542;48.360;10.958;2023-02-11T04:56:24;97963.16;;;-3.99;91.50
56668;BME280;42542;48.360;10.958;2023-02-11T04:59:26;97967.41;;;-3.95;91.50
56668;BME280;42542;48.360;10.958;2023-02-11T05:02:29;97957.81;;;-3.94;91.42
56668;BME280;42542;48.360;10.958;2023-02-11T05:05:30;97969.16;;;-3.95;91.72
56668;BME280;42542;48.360;10.958;2023-02-11T05:08:32;97952.63;;;-3.96;92.05
56668;BME280;42542;48.360;10.958;2023-02-11T05:11:34;97954.22;;;-3.88;91.68
56668;BME280;42542;48.360;10.958;2023-02-11T05:14:38;97955.91;;;-3.86;92.00
56668;BME280;42542;48.360;10.958;2023-02-11T05:17:39;97949.78;;;-3.83;92.07
56668;BME280;42542;48.360;10.958;2023-02-11T05:20:42;97950.56;;;-3.80;91.93
56668;BME280;42542;48.360;10.958;2023-02-11T05:23:45;97942.66;;;-3.77;92.47
56668;BME280;42542;48.360;10.958;2023-02-11T05:26:47;97952.16;;;-3.73;92.42
56668;BME280;42542;48.360;10.958;2023-02-11T05:29:50;97940.75;;;-3.69;92.26
56668;BME280;42542;48.360;10.958;2023-02-11T05:32:53;97942.38;;;-3.65;92.49
56668;BME280;42542;48.360;10.958;2023-02-11T05:36:03;97939.75;;;-3.63;92.32
56668;BME280;42542;48.360;10.958;2023-02-11T05:39:06;97948.31;;;-3.57;92.30
56668;BME280;42542;48.360;10.958;2023-02-11T05:42:07;97944.78;;;-3.54;92.40
56668;BME280;42542;48.360;10.958;2023-02-11T05:45:09;97939.44;;;-3.49;92.43
56668;BME280;42542;48.360;10.958;2023-02-11T05:48:10;97931.63;;;-3.51;92.37
56668;BME280;42542;48.360;10.958;2023-02-11T05:51:13;97921.94;;;-3.46;92.42
56668;BME280;42542;48.360;10.958;2023-02-11T05:54:15;97922.72;;;-3.42;92.11
56668;BME280;42542;48.360;10.958;2023-02-11T05:57:17;97923.41;;;-3.34;92.28
56668;BME280;42542;48.360;10.958;2023-02-11T06:00:19;97918.09;;;-3.31;92.27
56668;BME280;42542;48.360;10.958;2023-02-11T06:03:21;97931.09;;;-3.28;92.30
56668;BME280;42542;48.360;10.958;2023-02-11T06:06:24;97928.38;;;-3.24;92.17
56668;BME280;42542;48.360;10.958;2023-02-11T06:09:26;97921.34;;;-3.22;92.31
56668;BME280;42542;48.360;10.958;2023-02-11T06:12:28;97919.59;;;-3.21;92.12
56668;BME280;42542;48.360;10.958;2023-02-11T06:15:31;97922.91;;;-3.15;92.38
56668;BME280;42542;48.360;10.958;2023-02-11T06:18:33;97926.25;;;-3.08;92.76
56668;BME280;42542;48.360;10.958;2023-02-11T06:21:35;97921.78;;;-3.03;92.67
56668;BME280;42542;48.360;10.958;2023-02-11T06:24:45;97918.25;;;-3.02;92.69
56668;BME280;42542;48.360;10.958;2023-02-11T06:28:02;97915.56;;;-2.99;92.70
56668;BME280;42542;48.360;10.958;2023-02-11T06:31:05;97920.63;;;-2.93;92.55
56668;BME280;42542;48.360;10.958;2023-02-11T06:34:08;97920.63;;;-2.93;92.31
56668;BME280;42542;48.360;10.958;2023-02-11T06:37:11;97920.53;;;-2.88;92.35
56668;BME280;42542;48.360;10.958;2023-02-11T06:40:13;97925.72;;;-2.87;92.42
56668;BME280;42542;48.360;10.958;2023-02-11T06:43:15;97927.44;;;-2.86;92.15
56668;BME280;42542;48.360;10.958;2023-02-11T06:46:19;97934.31;;;-2.82;92.31
56668;BME280;42542;48.360;10.958;2023-02-11T06:49:21;97938.59;;;-2.79;92.20
56668;BME280;42542;48.360;10.958;2023-02-11T06:52:23;97933.34;;;-2.78;91.84
56668;BME280;42542;48.360;10.958;2023-02-11T06:55:27;97906.19;;;-2.73;91.81
56668;BME280;42542;48.360;10.958;2023-02-11T06:58:29;97899.19;;;-2.73;92.11
56668;BME280;42542;48.360;10.958;2023-02-11T07:01:33;97908.72;;;-2.70;91.88
56668;BME280;42542;48.360;10.958;2023-02-11T07:04:35;97919.06;;;-2.66;92.63
56668;BME280;42542;48.360;10.958;2023-02-11T07:07:37;97930.25;;;-2.59;92.45
56668;BME280;42542;48.360;10.958;2023-02-11T07:10:39;97928.53;;;-2.60;92.37
56668;BME280;42542;48.360;10.958;2023-02-11T07:13:41;97924.75;;;-2.50;92.43
56668;BME280;42542;48.360;10.958;2023-02-11T07:16:43;97932.50;;;-2.46;92.44
56668;BME280;42542;48.360;10.958;2023-02-11T07:19:46;97932.41;;;-2.43;92.53
56668;BME280;42542;48.360;10.958;2023-02-11T07:22:47;97930.47;;;-2.36;92.46
56668;BME280;42542;48.360;10.958;2023-02-11T07:25:49;97920.91;;;-2.37;92.54
56668;BME280;42542;48.360;10.958;2023-02-11T07:28:51;97928.53;;;-2.28;92.50
56668;BME280;42542;48.360;10.958;2023-02-11T07:31:53;97934.47;;;-2.23;92.62
56668;BME280;42542;48.360;10.958;2023-02-11T07:34:55;97923.03;;;-2.19;92.46
56668;BME280;42542;48.360;10.958;2023-02-11T07:37:58;97924.72;;;-2.16;92.75
56668;BME280;42542;48.360;10.958;2023-02-11T07:41:05;97927.09;;;-2.09;92.66
56668;BME280;42542;48.360;10.958;2023-02-11T07:44:08;97937.47;;;-2.04;92.37
56668;BME280;42542;48.360;10.958;2023-02-11T07:47:10;97942.50;;;-1.97;92.13
56668;BME280;42542;48.360;10.958;2023-02-11T07:50:12;97928.34;;;-1.91;92.55
56668;BME280;42542;48.360;10.958;2023-02-11T07:53:14;97908.09;;;-1.86;92.24
56668;BME280;42542;48.360;10.958;2023-02-11T07:56:18;97917.56;;;-1.80;92.32
56668;BME280;42542;48.360;10.958;2023-02-11T07:59:19;97894.78;;;-1.78;91.86
56668;BME280;42542;48.360;10.958;2023-02-11T08:02:22;97890.97;;;-1.68;91.44
56668;BME280;42542;48.360;10.958;2023-02-11T08:05:24;97898.50;;;-1.58;91.12
56668;BME280;42542;48.360;10.958;2023-02-11T08:08:26;97884.28;;;-1.50;91.64
56668;BME280;42542;48.360;10.958;2023-02-11T08:11:28;97903.19;;;-1.39;91.54
56668;BME280;42542;48.360;10.958;2023-02-11T08:14:30;97871.44;;;-1.30;91.13
56668;BME280;42542;48.360;10.958;2023-02-11T08:17:34;97878.94;;;-1.20;90.70
56668;BME280;42542;48.360;10.958;2023-02-11T08:20:38;97884.81;;;-1.11;90.57
56668;BME280;42542;48.360;10.958;2023-02-11T08:23:41;97902.75;;;-0.99;90.06
56668;BME280;42542;48.360;10.958;2023-02-11T08:26:43;97898.16;;;-0.93;90.03
56668;BME280;42542;48.360;10.958;2023-02-11T08:29:44;97879.59;;;-0.87;88.92
56668;BME280;42542;48.360;10.958;2023-02-11T08:32:46;97885.34;;;-0.75;88.26
56668;BME280;42542;48.360;10.958;2023-02-11T08:35:48;97884.25;;;-0.70;87.18
56668;BME280;42542;48.360;10.958;2023-02-11T08:38:50;97893.56;;;-0.60;86.13
56668;BME280;42542;48.360;10.958;2023-02-11T08:41:53;97894.25;;;-0.55;85.93
56668;BME280;42542;48.360;10.958;2023-02-11T08:44:57;97897.47;;;-0.47;85.70
56668;BME280;42542;48.360;10.958;2023-02-11T08:47:59;97914.69;;;-0.38;84.81
56668;BME280;42542;48.360;10.958;2023-02-11T08:51:08;97922.34;;;-0.32;84.22
56668;BME280;42542;48.360;10.958;2023-02-11T08:54:13;97933.28;;;-0.19;84.26
56668;BME280;42542;48.360;10.958;2023-02-11T08:57:15;97933.81;;;-0.10;84.39
56668;BME280;42542;48.360;10.958;2023-02-11T09:00:18;97930.84;;;-0.01;83.57
56668;BME280;42542;48.360;10.958;2023-02-11T09:03:21;97930.44;;;0.10;83.72
56668;BME280;42542;48.360;10.958;2023-02-11T09:06:26;97936.28;;;0.18;83.43
56668;BME280;42542;48.360;10.958;2023-02-11T09:09:28;97931.66;;;0.25;83.16
56668;BME280;42542;48.360;10.958;2023-02-11T09:12:31;97928.78;;;0.31;83.19
56668;BME280;42542;48.360;10.958;2023-02-11T09:15:32;97921.53;;;0.37;83.14
56668;BME280;42542;48.360;10.958;2023-02-11T09:18:35;97913.47;;;0.42;83.24
56668;BME280;42542;48.360;10.958;2023-02-11T09:21:36;97900.81;;;0.52;82.93
56668;BME280;42542;48.360;10.958;2023-02-11T09:24:38;97885.84;;;0.54;83.52
56668;BME280;42542;48.360;10.958;2023-02-11T09:27:40;97887.19;;;0.64;82.93
56668;BME280;42542;48.360;10.958;2023-02-11T09:30:41;97892.22;;;0.70;83.26
56668;BME280;42542;48.360;10.958;2023-02-11T09:33:45;97902.28;;;0.81;82.82
56668;BME280;42542;48.360;10.958;2023-02-11T09:36:51;97897.72;;;0.86;82.59
56668;BME280;42542;48.360;10.958;2023-02-11T09:39:52;97896.47;;;0.94;81.92
56668;BME280;42542;48.360;10.958;2023-02-11T09:46:05;97889.00;;;1.05;81.46
56668;BME280;42542;48.360;10.958;2023-02-11T09:49:17;97885.00;;;1.17;81.17
56668;BME280;42542;48.360;10.958;2023-02-11T09:52:24;97875.06;;;1.24;81.20
56668;BME280;42542;48.360;10.958;2023-02-11T09:55:51;97874.63;;;1.34;80.45
56668;BME280;42542;48.360;10.958;2023-02-11T09:58:56;97870.66;;;1.44;80.95
56668;BME280;42542;48.360;10.958;2023-02-11T10:02:03;97864.19;;;1.51;80.17
56668;BME280;42542;48.360;10.958;2023-02-11T10:21:52;97872.13;;;2.29;78.22
56668;BME280;42542;48.360;10.958;2023-02-11T10:24:59;97878.91;;;2.35;77.47
56668;BME280;42542;48.360;10.958;2023-02-11T10:28:17;97880.41;;;2.41;77.01
56668;BME280;42542;48.360;10.958;2023-02-11T10:31:23;97886.41;;;2.44;76.48
56668;BME280;42542;48.360;10.958;2023-02-11T10:34:26;97877.53;;;2.45;76.43
56668;BME280;42542;48.360;10.958;2023-02-11T10:37:29;97858.00;;;2.49;76.61
56668;BME280;42542;48.360;10.958;2023-02-11T10:40:32;97862.91;;;2.57;76.64
56668;BME280;42542;48.360;10.958;2023-02-11T10:43:34;97863.63;;;2.60;74.79
56668;BME280;42542;48.360;10.958;2023-02-11T10:46:36;97852.84;;;2.65;73.77
56668;BME280;42542;48.360;10.958;2023-02-11T10:49:42;97860.47;;;2.71;73.66
56668;BME280;42542;48.360;10.958;2023-02-11T10:52:45;97861.97;;;2.77;72.95
56668;BME280;42542;48.360;10.958;2023-02-11T10:55:52;97841.63;;;2.79;73.15
56668;BME280;42542;48.360;10.958;2023-02-11T10:59:39;97843.72;;;2.89;73.27
56668;BME280;42542;48.360;10.958;2023-02-11T11:02:26;97832.66;;;3.00;72.67
56668;BME280;42542;48.360;10.958;2023-02-11T11:05:46;97839.03;;;3.13;71.82
56668;BME280;42542;48.360;10.958;2023-02-11T11:08:50;97833.22;;;3.24;72.14
56668;BME280;42542;48.360;10.958;2023-02-11T11:11:52;97837.25;;;3.31;70.18
56668;BME280;42542;48.360;10.958;2023-02-11T11:15:00;97829.69;;;3.40;70.33
56668;BME280;42542;48.360;10.958;2023-02-11T11:18:13;97817.19;;;3.44;70.18
56668;BME280;42542;48.360;10.958;2023-02-11T11:21:25;97818.25;;;3.57;70.23
56668;BME280;42542;48.360;10.958;2023-02-11T11:24:40;97811.78;;;3.63;68.97
56668;BME280;42542;48.360;10.958;2023-02-11T11:27:48;97819.31;;;3.70;68.97
56668;BME280;42542;48.360;10.958;2023-02-11T11:30:52;97818.13;;;3.76;69.62
56668;BME280;42542;48.360;10.958;2023-02-11T11:33:57;97815.25;;;3.80;69.74
56668;BME280;42542;48.360;10.958;2023-02-11T11:37:09;97820.56;;;3.80;68.47
56668;BME280;42542;48.360;10.958;2023-02-11T11:43:18;97827.38;;;3.84;67.50
56668;BME280;42542;48.360;10.958;2023-02-11T11:46:44;97826.38;;;3.87;67.69
56668;BME280;42542;48.360;10.958;2023-02-11T11:49:54;97827.03;;;3.90;67.78
56668;BME280;42542;48.360;10.958;2023-02-11T11:53:11;97828.59;;;3.95;67.85
56668;BME280;42542;48.360;10.958;2023-02-11T11:56:22;97822.19;;;3.99;68.51
56668;BME280;42542;48.360;10.958;2023-02-11T11:59:25;97817.50;;;4.04;69.00
56668;BME280;42542;48.360;10.958;2023-02-11T12:13:06;97811.09;;;4.25;68.67
56668;BME280;42542;48.360;10.958;2023-02-11T12:26:14;97813.38;;;4.31;68.59
56668;BME280;42542;48.360;10.958;2023-02-11T12:32:39;97797.59;;;4.29;69.35
56668;BME280;42542;48.360;10.958;2023-02-11T12:39:41;97791.28;;;4.32;69.13
56668;BME280;42542;48.360;10.958;2023-02-11T12:46:23;97778.56;;;4.39;69.22
56668;BME280;42542;48.360;10.958;2023-02-11T12:49:58;97782.72;;;4.43;68.92
56668;BME280;42542;48.360;10.958;2023-02-11T12:56:34;97772.47;;;4.52;68.52
56668;BME280;42542;48.360;10.958;2023-02-11T12:59:50;97768.69;;;4.56;68.56
56668;BME280;42542;48.360;10.958;2023-02-11T13:03:15;97771.78;;;4.64;68.37
56668;BME280;42542;48.360;10.958;2023-02-11T13:06:32;97760.66;;;4.74;68.58
56668;BME280;42542;48.360;10.958;2023-02-11T13:09:41;97751.63;;;4.92;69.71
56668;BME280;42542;48.360;10.958;2023-02-11T13:12:47;97747.16;;;5.22;67.80
56668;BME280;42542;48.360;10.958;2023-02-11T13:16:37;97743.53;;;5.53;67.86
56668;BME280;42542;48.360;10.958;2023-02-11T13:19:49;97743.91;;;5.75;66.41
56668;BME280;42542;48.360;10.958;2023-02-11T13:23:14;97760.81;;;5.88;65.43
56668;BME280;42542;48.360;10.958;2023-02-11T13:26:28;97750.66;;;5.95;64.20
56668;BME280;42542;48.360;10.958;2023-02-11T13:42:02;97739.34;;;6.06;63.89
56668;BME280;42542;48.360;10.958;2023-02-11T13:45:38;97744.16;;;6.13;63.75
56668;BME280;42542;48.360;10.958;2023-02-11T13:48:44;97739.72;;;6.14;63.87
56668;BME280;42542;48.360;10.958;2023-02-11T13:51:47;97735.09;;;6.17;64.48
56668;BME280;42542;48.360;10.958;2023-02-11T13:54:50;97730.63;;;6.18;64.16
56668;BME280;42542;48.360;10.958;2023-02-11T14:01:06;97726.16;;;6.18;63.42
56668;BME280;42542;48.360;10.958;2023-02-11T14:04:24;97722.25;;;6.24;62.88
56668;BME280;42542;48.360;10.958;2023-02-11T14:18:35;97734.19;;;6.31;63.44
56668;BME280;42542;48.360;10.958;2023-02-11T14:21:38;97724.34;;;6.33;64.08
56668;BME280;42542;48.360;10.958;2023-02-11T14:24:47;97730.50;;;6.34;63.41
56668;BME280;42542;48.360;10.958;2023-02-11T14:28:02;97727.72;;;6.35;63.83
56668;BME280;42542;48.360;10.958;2023-02-11T14:31:10;97720.59;;;6.36;64.37
56668;BME280;42542;48.360;10.958;2023-02-11T14:37:54;97716.25;;;6.35;62.94
56668;BME280;42542;48.360;10.958;2023-02-11T14:44:15;97728.88;;;6.31;63.06
56668;BME280;42542;48.360;10.958;2023-02-11T14:47:22;97728.03;;;6.31;63.31
56668;BME280;42542;48.360;10.958;2023-02-11T14:50:48;97734.97;;;6.33;63.43
56668;BME280;42542;48.360;10.958;2023-02-11T14:53:51;97732.31;;;6.33;63.50
56668;BME280;42542;48.360;10.958;2023-02-11T14:57:13;97738.56;;;6.32;63.02
56668;BME280;42542;48.360;10.958;2023-02-11T15:00:19;97739.50;;;6.31;62.98
56668;BME280;42542;48.360;10.958;2023-02-11T15:03:35;97728.97;;;6.30;62.97
56668;BME280;42542;48.360;10.958;2023-02-11T15:06:42;97732.56;;;6.28;62.87
56668;BME280;42542;48.360;10.958;2023-02-11T15:09:51;97744.81;;;6.31;63.64
56668;BME280;42542;48.360;10.958;2023-02-11T15:12:54;97741.13;;;6.34;63.95
56668;BME280;42542;48.360;10.958;2023-02-11T15:16:04;97738.47;;;6.34;63.55
56668;BME280;42542;48.360;10.958;2023-02-11T15:19:23;97744.72;;;6.33;63.62
56668;BME280;42542;48.360;10.958;2023-02-11T15:22:29;97743.97;;;6.31;63.47
56668;BME280;42542;48.360;10.958;2023-02-11T15:25:33;97736.09;;;6.29;63.40
56668;BME280;42542;48.360;10.958;2023-02-11T15:28:45;97749.47;;;6.27;63.67
56668;BME280;42542;48.360;10.958;2023-02-11T15:32:16;97750.44;;;6.26;63.34
56668;BME280;42542;48.360;10.958;2023-02-11T15:35:18;97761.88;;;6.27;63.72
56668;BME280;42542;48.360;10.958;2023-02-11T15:38:20;97752.41;;;6.23;64.05
56668;BME280;42542;48.360;10.958;2023-02-11T15:41:36;97766.53;;;6.23;63.94
56668;BME280;42542;48.360;10.958;2023-02-11T15:44:39;97760.47;;;6.21;64.41
56668;BME280;42542;48.360;10.958;2023-02-11T15:47:48;97758.22;;;6.15;64.79
56668;BME280;42542;48.360;10.958;2023-02-11T15:50:52;97765.22;;;6.16;65.69
56668;BME280;42542;48.360;10.958;2023-02-11T15:53:57;97764.56;;;6.13;66.64
56668;BME280;42542;48.360;10.958;2023-02-11T15:57:07;97770.06;;;6.10;67.49
56668;BME280;42542;48.360;10.958;2023-02-11T16:00:18;97780.13;;;6.05;68.11
56668;BME280;42542;48.360;10.958;2023-02-11T16:03:23;97778.69;;;5.99;68.61
56668;BME280;42542;48.360;10.958;2023-02-11T16:06:35;97781.56;;;5.96;68.85
56668;BME280;42542;48.360;10.958;2023-02-11T16:09:39;97776.53;;;5.92;69.24
56668;BME280;42542;48.360;10.958;2023-02-11T16:12:58;97780.31;;;5.87;69.29
56668;BME280;42542;48.360;10.958;2023-02-11T16:16:03;97784.19;;;5.82;69.33
56668;BME280;42542;48.360;10.958;2023-02-11T17:39:28;97872.25;;;4.19;74.37
56668;BME280;42542;48.360;10.958;2023-02-11T17:42:56;97869.28;;;4.09;75.06
56668;BME280;42542;48.360;10.958;2023-02-11T17:50:46;97863.34;;;3.88;75.39
56668;BME280;42542;48.360;10.958;2023-02-11T17:59:14;97899.97;;;3.79;75.42
56668;BME280;42542;48.360;10.958;2023-02-11T18:02:18;97891.66;;;3.69;75.31
56668;BME280;42542;48.360;10.958;2023-02-11T18:05:21;97903.34;;;3.65;76.24
56668;BME280;42542;48.360;10.958;2023-02-11T18:08:24;97885.44;;;3.53;76.44
56668;BME280;42542;48.360;10.958;2023-02-11T18:11:27;97898.03;;;3.48;76.44
56668;BME280;42542;48.360;10.958;2023-02-11T18:14:30;97902.53;;;3.46;76.62
56668;BME280;42542;48.360;10.958;2023-02-11T18:17:32;97913.53;;;3.38;76.61
56668;BME280;42542;48.360;10.958;2023-02-11T18:20:34;97915.19;;;3.39;77.08
56668;BME280;42542;48.360;10.958;2023-02-11T18:23:36;97911.16;;;3.32;77.30
56668;BME280;42542;48.360;10.958;2023-02-11T18:26:38;97912.13;;;3.31;77.67
56668;BME280;42542;48.360;10.958;2023-02-11T18:29:40;97915.03;;;3.25;77.57
56668;BME280;42542;48.360;10.958;2023-02-11T18:32:44;97907.34;;;3.21;78.00
56668;BME280;42542;48.360;10.958;2023-02-11T18:35:46;97905.63;;;3.20;77.87
56668;BME280;42542;48.360;10.958;2023-02-11T18:38:50;97916.00;;;3.24;78.66
56668;BME280;42542;48.360;10.958;2023-02-11T18:42:01;97913.72;;;3.17;78.68
56668;BME280;42542;48.360;10.958;2023-02-11T18:45:10;97912.63;;;3.21;79.12
56668;BME280;42542;48.360;10.958;2023-02-11T18:48:12;97895.28;;;3.15;78.88
56668;BME280;42542;48.360;10.958;2023-02-11T18:51:16;97889.28;;;3.11;78.94
56668;BME280;42542;48.360;10.958;2023-02-11T18:54:24;97894.56;;;3.11;78.88
56668;BME280;42542;48.360;10.958;2023-02-11T18:57:38;97895.44;;;3.12;78.98
56668;BME280;42542;48.360;10.958;2023-02-11T19:00:45;97905.88;;;3.15;79.71
56668;BME280;42542;48.360;10.958;2023-02-11T19:03:50;97903.53;;;3.09;79.74
56668;BME280;42542;48.360;10.958;2023-02-11T19:06:55;97900.09;;;3.07;79.32
56668;BME280;42542;48.360;10.958;2023-02-11T19:10:10;97906.00;;;3.12;79.45
56668;BME280;42542;48.360;10.958;2023-02-11T19:13:17;97901.81;;;3.08;79.58
56668;BME280;42542;48.360;10.958;2023-02-11T19:16:43;97900.34;;;3.02;80.04
56668;BME280;42542;48.360;10.958;2023-02-11T19:19:49;97906.44;;;3.03;79.82
56668;BME280;42542;48.360;10.958;2023-02-11T19:22:51;97902.13;;;3.02;80.40
56668;BME280;42542;48.360;10.958;2023-02-11T19:25:53;97900.47;;;2.99;79.66
56668;BME280;42542;48.360;10.958;2023-02-11T19:28:56;97902.25;;;2.99;80.23
56668;BME280;42542;48.360;10.958;2023-02-11T19:32:05;97915.88;;;3.08;79.78
56668;BME280;42542;48.360;10.958;2023-02-11T19:35:07;97902.31;;;2.97;80.46
56668;BME280;42542;48.360;10.958;2023-02-11T19:38:09;97903.81;;;3.03;80.28
56668;BME280;42542;48.360;10.958;2023-02-11T19:41:19;97918.53;;;3.08;80.67
56668;BME280;42542;48.360;10.958;2023-02-11T19:44:28;97898.63;;;3.01;80.55
56668;BME280;42542;48.360;10.958;2023-02-11T19:48:00;97907.09;;;3.08;80.34
56668;BME280;42542;48.360;10.958;2023-02-11T19:55:59;97912.22;;;3.11;80.65